Time;durP1;ratioP1;P1;durP2;ratioP2;P2;SDS_P1;SDS_P2;PMS_P1;PMS_P2;Temp;Humidity;BMP_temperature;BMP_pressure;BME280_temperature;BME280_humidity;BME280_pressure;Samples;Min_cycle;Max_cycle;Signal;HPM_P1;HPM_P2
2022/03/12 00:00:04;;;;;;;7.20;3.97;;;;;;;-1.72;39.98;96838.06;5031898;28;20424;-74
2022/03/12 00:02:38;;;;;;;11.90;7.40;;;;;;;-1.61;39.65;96837.16;5062769;28;20424;-74
2022/03/12 00:05:07;;;;;;;14.23;8.13;;;;;;;-1.59;39.56;96832.56;5048386;28;20471;-73
2022/03/12 00:07:37;;;;;;;10.50;6.40;;;;;;;-1.60;40.03;96840.56;5048130;28;20480;-74
2022/03/12 00:10:05;;;;;;;8.80;6.27;;;;;;;-1.63;39.68;96841.03;5031359;28;20486;-72
2022/03/12 00:12:34;;;;;;;11.60;6.53;;;;;;;-1.75;39.56;96828.13;5031610;28;20939;-72
2022/03/12 00:15:09;;;;;;;16.30;8.47;;;;;;;-1.62;38.85;96845.19;5032615;28;20474;-73
2022/03/12 00:17:39;;;;;;;19.83;9.53;;;;;;;-1.72;39.72;96835.47;5015002;28;20438;-73
2022/03/12 00:20:12;;;;;;;21.00;12.00;;;;;;;-1.73;40.93;96835.69;5031596;28;20446;-72
2022/03/12 00:22:45;;;;;;;16.00;6.70;;;;;;;-1.73;39.64;96833.09;5036665;28;20440;-72
2022/03/12 00:25:13;;;;;;;11.47;7.13;;;;;;;-2.02;39.77;96803.84;5032451;28;20529;-72
2022/03/12 00:27:41;;;;;;;7.30;4.80;;;;;;;-1.98;39.11;96805.75;5030654;28;20881;-72
2022/03/12 00:30:16;;;;;;;7.37;4.60;;;;;;;-1.78;39.12;96838.97;5027906;28;20479;-72
2022/03/12 00:32:45;;;;;;;4.00;3.53;;;;;;;-1.79;39.45;96827.81;4999863;28;20938;-72
2022/03/12 00:35:14;;;;;;;4.40;3.80;;;;;;;-1.84;39.23;96847.69;5029410;28;20530;-73
2022/03/12 00:37:41;;;;;;;4.13;3.73;;;;;;;-2.14;39.00;96814.28;5032382;28;20433;-72
2022/03/12 00:40:09;;;;;;;6.40;4.47;;;;;;;-2.09;39.08;96806.59;5015126;28;20439;-72
2022/03/12 00:42:36;;;;;;;6.30;4.63;;;;;;;-2.01;38.72;96813.97;5031089;28;20443;-71
2022/03/12 00:45:03;;;;;;;6.67;5.00;;;;;;;-1.76;38.83;96856.88;5047505;28;21001;-72
2022/03/12 00:47:31;;;;;;;12.73;6.80;;;;;;;-1.99;38.94;96840.47;5014560;28;20954;-71
2022/03/12 00:49:58;;;;;;;16.27;7.77;;;;;;;-1.78;39.27;96857.13;5030501;28;20444;-71
2022/03/12 00:52:25;;;;;;;11.50;7.77;;;;;;;-1.98;38.83;96829.06;5030758;28;20427;-72
2022/03/12 00:54:52;;;;;;;9.10;6.77;;;;;;;-1.84;38.91;96850.28;5030330;28;20467;-71
2022/03/12 00:57:19;;;;;;;7.40;4.87;;;;;;;-1.72;39.18;96863.19;5032064;28;20497;-72
2022/03/12 00:59:46;;;;;;;5.07;4.13;;;;;;;-1.85;39.21;96854.69;5047086;28;20517;-71
2022/03/12 01:02:15;;;;;;;6.00;4.53;;;;;;;-1.87;38.77;96861.09;5063809;28;20936;-71
2022/03/12 01:04:43;;;;;;;5.20;3.63;;;;;;;-1.95;39.56;96856.31;5030214;28;20474;-72
2022/03/12 01:07:12;;;;;;;4.27;3.87;;;;;;;-2.09;39.40;96856.59;5046761;28;20513;-72
2022/03/12 01:09:39;;;;;;;7.53;3.60;;;;;;;-2.32;40.29;96854.09;5014021;28;20546;-72
2022/03/12 01:12:08;;;;;;;4.90;3.73;;;;;;;-2.36;40.06;96857.38;5050170;28;20474;-71
2022/03/12 01:14:38;;;;;;;5.27;4.13;;;;;;;-2.63;40.55;96829.44;5006975;28;20519;-71
2022/03/12 01:17:06;;;;;;;4.00;3.53;;;;;;;-2.49;39.69;96829.97;4997937;28;20449;-71
2022/03/12 01:19:38;;;;;;;6.60;4.50;;;;;;;-2.19;39.22;96860.81;5031518;28;20428;-71
2022/03/12 01:22:05;;;;;;;5.43;4.20;;;;;;;-2.30;39.42;96833.94;5000609;28;20820;-71
2022/03/12 01:24:34;;;;;;;5.67;4.57;;;;;;;-2.21;39.31;96835.16;5030225;28;20495;-71
2022/03/12 01:27:00;;;;;;;5.60;4.00;;;;;;;-2.33;39.55;96811.09;5046457;28;20438;-71
2022/03/12 01:29:27;;;;;;;3.63;3.33;;;;;;;-2.26;39.44;96809.16;5030184;28;20532;-71
2022/03/12 01:31:54;;;;;;;5.10;4.13;;;;;;;-1.97;38.70;96845.41;5028501;28;20487;-71
2022/03/12 01:34:21;;;;;;;3.73;3.43;;;;;;;-2.26;38.71;96803.22;5042978;28;20471;-71
2022/03/12 01:36:48;;;;;;;4.10;3.30;;;;;;;-2.10;38.63;96815.41;5026729;28;20568;-71
2022/03/12 01:39:14;;;;;;;3.93;3.20;;;;;;;-1.99;39.01;96840.47;5022067;28;20518;-71
2022/03/12 01:41:42;;;;;;;4.70;4.30;;;;;;;-2.05;38.70;96838.78;5035493;28;20431;-71
2022/03/12 01:44:14;;;;;;;3.90;3.60;;;;;;;-2.25;39.04;96807.38;5017918;28;20469;-71
2022/03/12 01:46:43;;;;;;;5.43;4.00;;;;;;;-2.09;38.69;96824.72;5035312;28;20993;-71
2022/03/12 01:49:16;;;;;;;8.13;4.40;;;;;;;-2.02;38.38;96838.31;5017379;28;20443;-71
2022/03/12 01:51:45;;;;;;;5.40;3.57;;;;;;;-1.99;38.38;96837.09;5017858;28;20479;-71
2022/03/12 01:54:17;;;;;;;4.00;3.63;;;;;;;-1.91;38.33;96839.28;5017241;28;20517;-71
2022/03/12 01:56:45;;;;;;;5.50;3.90;;;;;;;-1.95;38.26;96848.53;5017351;28;20902;-71
2022/03/12 01:59:12;;;;;;;4.60;3.57;;;;;;;-1.95;38.73;96843.34;5033814;28;20426;-71
2022/03/12 02:01:39;;;;;;;5.00;3.43;;;;;;;-2.00;38.68;96845.84;5033821;28;20472;-71
2022/03/12 02:04:08;;;;;;;6.37;4.00;;;;;;;-2.04;38.59;96829.22;5034956;28;20872;-71
2022/03/12 02:06:41;;;;;;;4.40;3.60;;;;;;;-1.95;38.62;96854.50;5033686;28;20456;-71
2022/03/12 02:09:13;;;;;;;5.87;3.87;;;;;;;-1.95;38.70;96851.91;5050028;28;20877;-71
2022/03/12 02:11:42;;;;;;;4.20;3.53;;;;;;;-2.11;38.92;96850.09;5033648;28;20438;-70
2022/03/12 02:14:08;;;;;;;4.03;3.30;;;;;;;-2.25;39.41;96852.16;5028724;28;20571;-71
2022/03/12 02:16:36;;;;;;;4.80;3.40;;;;;;;-2.05;38.74;96840.59;5013714;28;20914;-71
2022/03/12 02:19:04;;;;;;;3.70;3.40;;;;;;;-2.17;38.55;96849.19;5033617;28;20843;-71
2022/03/12 02:21:42;;;;;;;5.77;4.20;;;;;;;-2.21;39.00;96847.31;5021997;28;20439;-71
2022/03/12 02:24:11;;;;;;;3.83;3.50;;;;;;;-2.31;39.46;96847.91;5030095;28;20788;-70
2022/03/12 02:26:42;;;;;;;8.13;4.60;;;;;;;-2.45;39.87;96849.97;5027920;28;20872;-71
2022/03/12 02:29:12;;;;;;;4.20;3.37;;;;;;;-2.55;39.43;96854.94;5033049;28;20441;-71
2022/03/12 02:31:45;;;;;;;4.50;3.80;;;;;;;-2.83;40.67;96849.72;5032814;28;20500;-71
2022/03/12 02:34:12;;;;;;;6.90;3.87;;;;;;;-2.99;40.36;96831.31;5032806;28;20475;-71
2022/03/12 02:36:40;;;;;;;4.33;4.00;;;;;;;-2.94;40.94;96846.13;5032861;28;20514;-70
2022/03/12 02:39:07;;;;;;;4.47;3.60;;;;;;;-2.88;40.22;96849.63;5032966;28;20428;-70
2022/03/12 02:41:34;;;;;;;7.20;4.00;;;;;;;-3.05;40.77;96814.13;5032619;28;20439;-70
2022/03/12 02:44:01;;;;;;;4.23;3.83;;;;;;;-3.19;40.60;96779.19;5032660;28;20493;-70
2022/03/12 02:46:29;;;;;;;4.23;3.20;;;;;;;-2.88;40.75;96821.97;5033950;28;20435;-70
2022/03/12 02:48:56;;;;;;;7.07;3.87;;;;;;;-2.62;40.21;96851.72;5033788;28;20432;-70
2022/03/12 02:51:25;;;;;;;5.83;4.20;;;;;;;-2.70;40.79;96846.88;5031344;28;20431;-70
2022/03/12 02:53:56;;;;;;;4.10;3.03;;;;;;;-2.61;39.59;96852.50;5065462;28;20512;-70
2022/03/12 02:56:24;;;;;;;4.47;4.00;;;;;;;-2.58;39.95;96852.81;5032308;28;20909;-70
2022/03/12 02:58:51;;;;;;;4.90;3.70;;;;;;;-2.70;39.99;96842.50;5032354;28;20549;-71
2022/03/12 03:01:19;;;;;;;5.00;3.53;;;;;;;-2.59;40.30;96855.66;5032185;28;20542;-71
2022/03/12 03:03:47;;;;;;;8.27;3.67;;;;;;;-2.78;40.28;96824.75;5033404;28;20485;-70
2022/03/12 03:06:14;;;;;;;3.13;2.83;;;;;;;-2.89;39.76;96817.81;4989977;28;20485;-70
2022/03/12 03:08:42;;;;;;;3.37;2.93;;;;;;;-2.77;39.85;96825.56;5065244;28;20435;-70
2022/03/12 03:11:17;;;;;;;6.50;4.20;;;;;;;-3.01;40.07;96819.63;5015486;28;20488;-70
2022/03/12 03:13:44;;;;;;;3.63;3.33;;;;;;;-2.88;40.21;96852.22;5033150;28;20822;-70
2022/03/12 03:16:22;;;;;;;4.50;3.23;;;;;;;-3.26;40.43;96801.78;5015614;28;20447;-70
2022/03/12 03:18:53;;;;;;;4.13;3.23;;;;;;;-2.84;39.98;96853.34;5015448;28;20857;-70
2022/03/12 03:21:23;;;;;;;4.13;3.40;;;;;;;-2.86;40.13;96827.69;5020628;28;20437;-70
2022/03/12 03:23:51;;;;;;;5.90;3.87;;;;;;;-2.73;39.75;96842.97;5031671;28;20452;-70
2022/03/12 03:26:44;;;;;;;3.33;3.00;;;;;;;-2.61;39.13;96840.34;5065073;28;20529;-70
2022/03/12 03:29:10;;;;;;;3.53;3.07;;;;;;;-2.75;39.50;96824.31;5033023;28;20430;-70
2022/03/12 03:31:37;;;;;;;7.70;3.70;;;;;;;-2.66;39.39;96837.69;5031919;28;20447;-70
2022/03/12 03:34:03;;;;;;;7.63;4.90;;;;;;;-2.51;38.82;96850.13;5015178;28;20466;-71
2022/03/12 03:36:30;;;;;;;3.60;3.17;;;;;;;-2.54;39.02;96858.31;5031414;28;20470;-71
2022/03/12 03:38:57;;;;;;;5.40;3.93;;;;;;;-2.81;39.53;96827.00;5031450;28;20467;-71
2022/03/12 03:41:24;;;;;;;10.63;4.00;;;;;;;-2.43;38.73;96871.22;5031477;28;20842;-71
2022/03/12 03:43:51;;;;;;;5.77;3.57;;;;;;;-2.60;38.98;96854.88;5031484;28;21098;-71
2022/03/12 03:46:20;;;;;;;5.90;3.83;;;;;;;-2.52;39.20;96871.84;5014966;28;20475;-71
2022/03/12 03:48:50;;;;;;;2.80;2.47;;;;;;;-2.73;39.52;96848.13;5032837;28;20871;-70
2022/03/12 03:51:20;;;;;;;5.87;4.20;;;;;;;-2.55;39.29;96873.06;5014983;28;20455;-70
2022/03/12 03:53:48;;;;;;;4.43;3.60;;;;;;;-2.62;39.55;96866.47;5064376;28;20478;-71
2022/03/12 03:56:15;;;;;;;5.07;3.27;;;;;;;-2.80;39.96;96857.84;5014858;28;21014;-71
2022/03/12 03:58:42;;;;;;;4.67;3.43;;;;;;;-3.08;40.81;96834.47;5047597;28;20478;-71
2022/03/12 04:01:12;;;;;;;7.43;3.73;;;;;;;-3.04;40.48;96851.13;5014739;28;20531;-70
2022/03/12 04:03:48;;;;;;;6.07;2.90;;;;;;;-3.30;40.59;96827.31;5047129;28;20454;-71
2022/03/12 04:06:20;;;;;;;4.83;3.40;;;;;;;-3.16;40.93;96856.28;5030984;28;20442;-71
2022/03/12 04:08:49;;;;;;;3.50;3.20;;;;;;;-3.51;41.63;96839.97;5032207;28;20423;-70
2022/03/12 04:11:19;;;;;;;4.87;3.33;;;;;;;-3.41;41.42;96848.75;5047222;28;20989;-70
2022/03/12 04:13:47;;;;;;;3.97;3.57;;;;;;;-3.17;41.14;96854.72;5030602;28;20563;-71
2022/03/12 04:16:14;;;;;;;5.67;4.70;;;;;;;-3.12;41.30;96839.31;5030816;28;20535;-70
2022/03/12 04:18:46;;;;;;;4.50;3.87;;;;;;;-2.92;40.54;96845.94;5047111;28;20971;-71
2022/03/12 04:21:15;;;;;;;4.00;3.33;;;;;;;-2.85;40.04;96834.44;5020658;28;20432;-71
2022/03/12 04:23:42;;;;;;;4.43;3.50;;;;;;;-2.84;40.18;96848.94;5029264;28;20819;-71
2022/03/12 04:26:12;;;;;;;3.20;2.60;;;;;;;-3.02;39.84;96826.59;5030622;28;20443;-71
2022/03/12 04:28:39;;;;;;;4.03;2.97;;;;;;;-2.80;40.10;96837.16;5031742;28;20432;-70
2022/03/12 04:31:08;;;;;;;3.57;3.27;;;;;;;-2.81;40.56;96830.38;5030656;28;20493;-71
2022/03/12 04:33:35;;;;;;;4.10;3.33;;;;;;;-2.92;40.11;96807.13;5031733;28;20482;-70
2022/03/12 04:36:03;;;;;;;3.70;3.40;;;;;;;-2.85;40.76;96828.47;5031759;28;20464;-71
2022/03/12 04:38:30;;;;;;;6.30;3.60;;;;;;;-2.82;39.77;96835.78;5030396;28;20470;-71
2022/03/12 04:40:57;;;;;;;4.70;3.17;;;;;;;-2.90;40.42;96816.25;5046758;28;20788;-71
2022/03/12 04:43:25;;;;;;;5.40;2.87;;;;;;;-2.98;40.22;96793.31;5030209;28;20523;-71
2022/03/12 04:45:53;;;;;;;5.67;4.67;;;;;;;-3.01;40.89;96830.75;5030558;28;20464;-71
2022/03/12 04:48:22;;;;;;;4.40;3.20;;;;;;;-2.94;39.76;96837.59;5031548;28;20433;-70
2022/03/12 04:50:51;;;;;;;4.50;3.17;;;;;;;-2.99;40.67;96836.47;5063260;28;20435;-70
2022/03/12 04:53:19;;;;;;;5.00;3.03;;;;;;;-2.96;39.49;96837.81;5030030;28;21310;-71
2022/03/12 04:55:46;;;;;;;7.00;3.87;;;;;;;-3.00;40.51;96832.31;5013611;28;21047;-71
2022/03/12 04:58:13;;;;;;;4.87;3.40;;;;;;;-2.93;39.96;96850.31;5030064;28;20498;-71
2022/03/12 05:00:43;;;;;;;5.03;3.33;;;;;;;-2.94;40.19;96840.97;5029890;28;20493;-71
2022/03/12 05:03:13;;;;;;;3.33;3.03;;;;;;;-3.04;39.96;96825.25;5031316;28;20446;-71
2022/03/12 05:05:44;;;;;;;4.83;3.23;;;;;;;-2.84;40.21;96856.72;5013522;28;20432;-71
2022/03/12 05:08:26;;;;;;;4.40;3.60;;;;;;;-2.87;40.05;96859.75;5029918;28;20843;-71
2022/03/12 05:10:55;;;;;;;5.17;3.50;;;;;;;-3.08;40.46;96824.91;5031159;28;20508;-71
2022/03/12 05:13:27;;;;;;;4.70;4.13;;;;;;;-2.87;40.74;96861.56;5031218;28;20427;-71
2022/03/12 05:16:03;;;;;;;4.87;3.20;;;;;;;-2.91;40.34;96860.44;5029274;28;20487;-71
2022/03/12 05:18:32;;;;;;;2.60;2.40;;;;;;;-2.93;40.58;96870.22;5029727;28;20488;-71
2022/03/12 05:20:59;;;;;;;6.33;3.60;;;;;;;-3.03;39.98;96863.03;5021480;28;20801;-71
2022/03/12 05:23:29;;;;;;;3.90;3.30;;;;;;;-3.01;41.08;96866.97;4998620;28;20559;-71
2022/03/12 05:25:55;;;;;;;6.63;3.23;;;;;;;-3.19;40.82;96845.63;5031079;28;20803;-71
2022/03/12 05:28:31;;;;;;;4.03;3.73;;;;;;;-3.08;41.22;96870.66;5031193;28;20518;-71
2022/03/12 05:31:00;;;;;;;3.47;2.80;;;;;;;-3.23;41.39;96839.31;5012008;28;20427;-71
2022/03/12 05:33:28;;;;;;;3.70;3.40;;;;;;;-3.19;41.30;96885.19;5030754;28;20773;-71
2022/03/12 05:35:55;;;;;;;3.30;3.00;;;;;;;-3.24;41.21;96854.03;5029632;28;20455;-71
2022/03/12 05:38:23;;;;;;;7.63;4.20;;;;;;;-3.23;41.41;96888.44;5013194;28;20489;-71
2022/03/12 05:40:51;;;;;;;4.30;2.73;;;;;;;-3.43;41.98;96889.56;5029556;28;20431;-71
2022/03/12 05:43:18;;;;;;;4.47;3.37;;;;;;;-3.60;41.91;96884.25;5029509;28;20436;-71
2022/03/12 05:45:50;;;;;;;3.30;3.00;;;;;;;-3.48;42.01;96893.78;5029491;28;20849;-71
2022/03/12 05:48:17;;;;;;;4.27;3.70;;;;;;;-3.23;41.63;96896.97;5029445;28;20447;-71
2022/03/12 05:50:48;;;;;;;3.37;3.03;;;;;;;-3.04;40.46;96900.25;5030825;28;20439;-71
2022/03/12 05:53:17;;;;;;;4.47;3.57;;;;;;;-2.87;40.45;96903.72;5029541;28;20431;-71
2022/03/12 05:55:47;;;;;;;4.53;4.13;;;;;;;-2.92;40.66;96906.22;5062606;28;20466;-71
2022/03/12 05:58:17;;;;;;;3.53;3.23;;;;;;;-2.90;40.67;96914.53;5030989;28;20451;-71
2022/03/12 06:00:47;;;;;;;4.10;3.70;;;;;;;-2.95;40.75;96895.50;5030639;28;20415;-71
2022/03/12 06:03:14;;;;;;;3.93;3.63;;;;;;;-2.97;40.21;96886.19;5062442;28;20427;-71
2022/03/12 06:05:42;;;;;;;5.83;4.40;;;;;;;-3.07;40.32;96883.41;5029208;28;20467;-71
2022/03/12 06:08:15;;;;;;;3.60;3.30;;;;;;;-2.78;39.88;96919.72;5062534;28;20445;-71
2022/03/12 06:10:51;;;;;;;4.63;3.07;;;;;;;-2.75;40.10;96925.22;5029049;28;20508;-71
2022/03/12 06:13:19;;;;;;;5.87;3.83;;;;;;;-2.70;40.40;96935.66;5029126;28;20447;-71
2022/03/12 06:15:50;;;;;;;4.70;3.50;;;;;;;-2.80;39.99;96911.38;5012772;28;20587;-72
2022/03/12 06:18:17;;;;;;;3.63;3.30;;;;;;;-2.56;39.39;96945.75;5029163;28;20763;-71
2022/03/12 06:20:44;;;;;;;5.87;3.50;;;;;;;-2.55;39.66;96940.34;5022961;28;20468;-71
2022/03/12 06:23:10;;;;;;;4.63;3.17;;;;;;;-2.84;39.69;96899.91;5022181;28;20936;-71
2022/03/12 06:25:37;;;;;;;4.70;3.43;;;;;;;-2.62;39.80;96918.22;5029881;28;20535;-71
2022/03/12 06:28:04;;;;;;;5.43;3.60;;;;;;;-2.81;39.77;96912.38;5032703;28;20915;-71
2022/03/12 06:30:30;;;;;;;3.47;3.03;;;;;;;-2.80;39.80;96909.59;5032779;28;20423;-71
2022/03/12 06:32:58;;;;;;;3.37;3.10;;;;;;;-2.35;39.13;96941.81;5032716;28;20435;-71
2022/03/12 06:35:26;;;;;;;5.20;4.30;;;;;;;-2.44;39.41;96947.31;5049011;28;20499;-71
2022/03/12 06:37:55;;;;;;;8.70;4.87;;;;;;;-2.39;38.77;96941.47;5034043;28;20430;-71
2022/03/12 06:40:22;;;;;;;6.90;4.60;;;;;;;-2.36;38.80;96941.03;5032651;28;20474;-71
2022/03/12 06:42:51;;;;;;;4.70;3.70;;;;;;;-2.27;38.52;96934.47;5033835;28;20964;-71
2022/03/12 06:45:18;;;;;;;9.47;4.13;;;;;;;-2.11;38.70;96948.50;5024994;28;20525;-71
2022/03/12 06:47:46;;;;;;;5.43;4.17;;;;;;;-1.96;38.74;96960.97;5032651;28;20465;-71
2022/03/12 06:50:18;;;;;;;4.30;3.90;;;;;;;-1.79;37.71;96961.78;5032847;28;20530;-71
2022/03/12 06:52:48;;;;;;;3.97;3.57;;;;;;;-1.81;37.62;96941.31;5032451;28;20550;-71
2022/03/12 06:55:18;;;;;;;7.00;4.73;;;;;;;-1.56;37.59;96961.69;5032322;28;20565;-71
2022/03/12 06:57:47;;;;;;;4.43;3.77;;;;;;;-1.70;37.90;96933.72;5032327;28;20998;-71
2022/03/12 07:00:18;;;;;;;6.67;4.00;;;;;;;-1.64;38.10;96943.13;5048746;28;20442;-72
2022/03/12 07:02:44;;;;;;;4.43;3.93;;;;;;;-1.58;36.84;96937.03;5032280;28;20513;-71
2022/03/12 07:05:11;;;;;;;4.50;4.13;;;;;;;-1.30;36.73;96943.97;5032272;28;20459;-71
2022/03/12 07:07:38;;;;;;;4.67;4.17;;;;;;;-1.09;36.22;96952.84;5032138;28;20974;-71
2022/03/12 07:10:06;;;;;;;9.83;3.80;;;;;;;-0.88;36.34;96965.13;5065220;28;20857;-72
2022/03/12 07:12:35;;;;;;;5.40;3.90;;;;;;;-0.89;36.60;96968.75;5033430;28;20928;-71
2022/03/12 07:15:03;;;;;;;4.80;3.73;;;;;;;-0.92;35.86;96941.47;5033295;28;20459;-71
2022/03/12 07:17:29;;;;;;;4.23;3.60;;;;;;;-0.50;36.16;96972.16;5031977;28;20458;-71
2022/03/12 07:19:57;;;;;;;4.80;4.40;;;;;;;-0.41;36.01;96977.72;5031981;28;20505;-71
2022/03/12 07:22:26;;;;;;;5.03;4.53;;;;;;;-0.73;35.70;96933.41;5007654;28;20454;-71
2022/03/12 07:24:52;;;;;;;4.03;3.73;;;;;;;-0.31;35.71;96970.06;5064909;28;20438;-72
2022/03/12 07:27:19;;;;;;;6.30;4.53;;;;;;;-0.31;34.99;96942.28;5031859;28;20534;-72
2022/03/12 07:29:46;;;;;;;3.23;2.93;;;;;;;-0.30;35.50;96949.03;5015517;28;20431;-72
2022/03/12 07:32:13;;;;;;;6.23;4.00;;;;;;;0.15;34.92;96976.63;5033166;28;20766;-72
2022/03/12 07:34:39;;;;;;;3.70;3.30;;;;;;;0.28;34.98;96952.03;5031496;28;20550;-72
2022/03/12 07:37:09;;;;;;;5.50;3.83;;;;;;;0.51;33.98;96987.38;5031320;28;20435;-72
2022/03/12 07:39:36;;;;;;;5.70;3.80;;;;;;;0.66;34.44;96971.91;5031631;28;20986;-71
2022/03/12 07:42:03;;;;;;;5.70;4.70;;;;;;;0.89;33.77;96991.63;5031640;28;20821;-71
2022/03/12 07:44:30;;;;;;;5.93;4.60;;;;;;;0.99;34.13;96981.31;5032698;28;20461;-70
2022/03/12 07:46:57;;;;;;;7.50;5.33;;;;;;;0.83;33.59;96972.59;5048039;28;20438;-71
2022/03/12 07:49:25;;;;;;;5.70;4.13;;;;;;;1.16;34.03;96970.75;5032778;28;20465;-70
2022/03/12 07:51:53;;;;;;;8.13;4.67;;;;;;;1.03;33.64;96963.38;5031532;28;20477;-70
2022/03/12 07:54:19;;;;;;;7.13;4.53;;;;;;;1.16;33.59;96984.56;5032614;28;20498;-71
2022/03/12 07:56:46;;;;;;;4.20;3.80;;;;;;;1.21;33.19;96962.22;5032676;28;21037;-71
2022/03/12 07:59:13;;;;;;;8.07;5.00;;;;;;;1.05;33.27;96959.47;5032555;28;20462;-71
2022/03/12 08:01:40;;;;;;;6.63;4.43;;;;;;;1.32;33.65;96992.47;5047700;28;20443;-72
2022/03/12 08:04:07;;;;;;;7.70;3.67;;;;;;;1.47;34.16;96958.72;5032339;28;20442;-72
2022/03/12 08:06:34;;;;;;;4.20;3.80;;;;;;;1.82;33.05;96983.41;5031163;28;20424;-72
2022/03/12 08:09:01;;;;;;;6.20;4.67;;;;;;;1.59;33.27;96976.75;5015004;28;20505;-73
2022/03/12 08:11:32;;;;;;;5.30;3.47;;;;;;;2.02;33.43;96960.03;5047493;28;20538;-71
2022/03/12 08:14:14;;;;;;;5.30;3.03;;;;;;;1.91;32.46;96987.09;5030822;28;20513;-71
2022/03/12 08:16:44;;;;;;;5.10;3.50;;;;;;;1.80;32.54;96975.03;5064168;28;20552;-73
2022/03/12 08:19:12;;;;;;;5.93;4.30;;;;;;;1.82;33.00;96992.00;5030892;28;20437;-73
2022/03/12 08:21:39;;;;;;;4.33;3.30;;;;;;;2.02;32.70;96991.31;5017324;28;20510;-70
2022/03/12 08:24:12;;;;;;;4.03;3.40;;;;;;;2.06;32.37;96976.72;5048053;28;20509;-70
2022/03/12 08:26:41;;;;;;;5.47;4.30;;;;;;;2.05;32.30;96999.41;5063976;28;20440;-70
2022/03/12 08:29:12;;;;;;;6.10;3.90;;;;;;;2.23;33.18;96995.56;5032026;28;20513;-71
2022/03/12 08:31:39;;;;;;;3.97;3.57;;;;;;;2.45;33.13;97007.66;5030619;28;20443;-71
2022/03/12 08:34:08;;;;;;;3.87;3.47;;;;;;;1.87;32.69;96979.00;5014336;28;20518;-71
2022/03/12 08:36:35;;;;;;;4.87;4.43;;;;;;;2.22;32.41;96978.34;5030294;28;20499;-70
2022/03/12 08:39:02;;;;;;;5.67;4.57;;;;;;;2.28;32.90;97002.63;5031838;28;20454;-70
2022/03/12 08:41:29;;;;;;;5.90;3.73;;;;;;;2.17;32.66;96988.78;5030429;28;20489;-70
2022/03/12 08:43:56;;;;;;;7.67;2.83;;;;;;;2.51;31.63;96998.78;5030334;28;20459;-71
2022/03/12 08:46:22;;;;;;;6.07;4.63;;;;;;;2.56;31.97;96989.16;5030479;28;20940;-71
2022/03/12 08:48:49;;;;;;;4.83;4.33;;;;;;;2.69;32.18;96997.53;5029711;28;20501;-71
2022/03/12 08:51:16;;;;;;;5.10;4.73;;;;;;;2.36;32.52;97004.75;5030068;28;20468;-71
2022/03/12 08:53:43;;;;;;;3.60;3.23;;;;;;;2.63;31.86;97001.94;5013899;28;21067;-71
2022/03/12 08:56:10;;;;;;;4.73;3.90;;;;;;;2.55;31.77;96979.75;5031520;28;20555;-71
2022/03/12 08:58:37;;;;;;;5.40;4.10;;;;;;;2.64;31.66;96975.56;5014023;28;20436;-71
2022/03/12 09:01:06;;;;;;;4.20;3.77;;;;;;;2.75;31.77;96980.81;5030084;28;20442;-71
2022/03/12 09:03:37;;;;;;;6.87;3.47;;;;;;;2.69;32.16;96997.53;5030199;28;20468;-71
2022/03/12 09:06:05;;;;;;;4.77;3.83;;;;;;;2.53;31.82;96971.38;5031465;28;20428;-71
2022/03/12 09:08:31;;;;;;;6.23;3.93;;;;;;;2.97;31.46;97004.88;5063233;28;20423;-72
2022/03/12 09:10:59;;;;;;;4.20;3.80;;;;;;;3.35;30.65;97000.16;5031119;28;20448;-71
2022/03/12 09:13:26;;;;;;;3.97;3.60;;;;;;;3.45;30.81;97007.97;5046544;28;20935;-71
2022/03/12 09:15:53;;;;;;;4.67;3.37;;;;;;;3.00;30.76;96956.53;5029818;28;20886;-71
2022/03/12 09:18:21;;;;;;;3.87;3.37;;;;;;;3.50;31.30;96987.06;5031309;28;20489;-71
2022/03/12 09:20:48;;;;;;;4.80;3.70;;;;;;;3.37;31.28;96983.16;5024455;28;20523;-71
2022/03/12 09:23:21;;;;;;;6.20;4.13;;;;;;;3.24;31.09;96991.53;5010389;28;20944;-71
2022/03/12 09:25:49;;;;;;;5.70;3.77;;;;;;;3.40;31.35;96989.69;5055104;28;20425;-71
2022/03/12 09:28:19;;;;;;;6.27;4.50;;;;;;;3.20;31.16;96983.44;5025521;28;20485;-71
2022/03/12 09:30:50;;;;;;;4.67;3.77;;;;;;;3.47;30.72;96998.84;5013442;28;20436;-71
2022/03/12 09:33:22;;;;;;;3.47;3.17;;;;;;;3.56;31.39;96989.41;5029926;28;20432;-71
2022/03/12 09:35:50;;;;;;;3.93;3.60;;;;;;;3.58;30.72;96972.66;5013373;28;20471;-71
2022/03/12 09:38:18;;;;;;;6.20;4.20;;;;;;;3.46;30.77;96972.94;5046540;28;20518;-71
2022/03/12 09:40:45;;;;;;;3.83;3.43;;;;;;;3.48;31.41;96939.50;5031029;28;20436;-71
2022/03/12 09:43:12;;;;;;;4.40;4.00;;;;;;;3.63;30.82;96962.22;5046052;28;20501;-72
2022/03/12 09:45:39;;;;;;;6.03;4.60;;;;;;;3.60;30.68;96965.34;5029641;28;20502;-71
2022/03/12 09:48:07;;;;;;;4.90;3.67;;;;;;;3.66;30.88;96948.59;5025664;28;20444;-71
2022/03/12 09:50:34;;;;;;;4.67;4.17;;;;;;;3.96;30.98;96968.63;5026299;28;20495;-72
2022/03/12 09:53:01;;;;;;;5.10;3.90;;;;;;;3.94;30.58;96939.34;5005622;28;20481;-71
2022/03/12 09:55:28;;;;;;;4.70;4.30;;;;;;;3.95;31.24;96933.84;5033835;28;20448;-71
2022/03/12 09:57:55;;;;;;;4.50;3.77;;;;;;;4.26;30.23;96968.50;5027879;28;20459;-72
2022/03/12 10:00:26;;;;;;;4.00;3.70;;;;;;;4.18;30.46;96929.81;5020680;28;20937;-72
2022/03/12 10:02:52;;;;;;;4.80;4.30;;;;;;;4.71;30.64;96971.94;5027649;28;20475;-72
2022/03/12 10:05:19;;;;;;;5.80;3.90;;;;;;;4.01;30.39;96947.72;5030785;28;20973;-72
2022/03/12 10:07:46;;;;;;;6.20;4.50;;;;;;;4.23;30.26;96978.72;5028620;28;20464;-72
2022/03/12 10:10:19;;;;;;;5.40;4.77;;;;;;;4.17;30.05;96971.97;5059117;28;21193;-72
2022/03/12 10:12:47;;;;;;;5.20;4.70;;;;;;;4.33;30.41;96963.00;5033342;28;20424;-72
2022/03/12 10:15:15;;;;;;;4.43;4.03;;;;;;;4.15;29.71;96940.84;5033164;28;20467;-72
2022/03/12 10:17:45;;;;;;;5.27;4.50;;;;;;;4.23;29.11;96974.28;5033115;28;20432;-71
2022/03/12 10:20:12;;;;;;;4.53;4.13;;;;;;;4.20;29.38;96940.03;5032970;28;20837;-71
2022/03/12 10:22:41;;;;;;;5.00;4.10;;;;;;;4.59;29.33;96971.47;5023472;28;20428;-73
2022/03/12 10:25:09;;;;;;;4.57;3.47;;;;;;;4.74;29.39;96974.00;5047266;28;20517;-72
2022/03/12 10:27:37;;;;;;;4.80;3.57;;;;;;;4.43;29.57;96942.78;5013238;28;20440;-72
2022/03/12 10:30:06;;;;;;;6.13;4.20;;;;;;;4.76;30.31;96971.88;5012809;28;20440;-72
2022/03/12 10:32:41;;;;;;;5.00;4.33;;;;;;;4.88;29.51;96974.16;5049586;28;20432;-73
2022/03/12 10:35:09;;;;;;;6.30;4.43;;;;;;;5.08;29.40;96974.03;5049525;28;20466;-73
2022/03/12 10:37:36;;;;;;;6.00;4.57;;;;;;;5.19;29.71;96977.31;5017347;28;20467;-72
2022/03/12 10:40:08;;;;;;;5.07;4.30;;;;;;;5.09;29.10;96975.59;5028641;28;20540;-73
2022/03/12 10:42:43;;;;;;;4.60;4.10;;;;;;;5.32;29.06;96968.81;5013266;28;20944;-72
2022/03/12 10:45:18;;;;;;;5.57;4.17;;;;;;;5.10;28.73;96956.19;5032616;28;20459;-72
2022/03/12 10:47:48;;;;;;;3.20;2.90;;;;;;;4.93;28.46;96955.78;5052516;28;20928;-72
2022/03/12 10:50:16;;;;;;;4.33;3.93;;;;;;;5.43;29.28;96951.16;5033111;28;20467;-72
2022/03/12 10:52:47;;;;;;;8.00;4.30;;;;;;;5.42;28.69;96945.13;5030754;28;20876;-72
2022/03/12 10:55:19;;;;;;;6.30;4.67;;;;;;;5.51;28.46;96948.72;5029634;28;20548;-72
2022/03/12 10:57:58;;;;;;;6.23;4.60;;;;;;;5.29;28.59;96922.97;5029341;28;20471;-73
2022/03/12 11:00:27;;;;;;;5.93;4.20;;;;;;;5.41;28.27;96948.03;5032509;28;20558;-72
2022/03/12 11:03:01;;;;;;;4.57;4.10;;;;;;;5.53;29.53;96948.44;5033656;28;20482;-72
2022/03/12 11:05:35;;;;;;;5.33;4.03;;;;;;;5.78;28.37;96956.06;5032283;28;20482;-72
2022/03/12 11:08:06;;;;;;;5.80;5.07;;;;;;;5.86;29.11;96950.16;5065731;28;20469;-72
2022/03/12 11:10:36;;;;;;;7.80;4.60;;;;;;;5.93;28.67;96949.88;5001782;28;20469;-72
2022/03/12 11:13:04;;;;;;;10.43;4.70;;;;;;;6.20;28.84;96944.03;5011510;28;20957;-73
2022/03/12 11:15:32;;;;;;;5.87;5.23;;;;;;;6.01;28.80;96907.28;5027616;28;20456;-72
2022/03/12 11:18:05;;;;;;;11.33;5.93;;;;;;;5.72;28.66;96930.91;5032175;28;20806;-72
2022/03/12 11:20:36;;;;;;;5.83;4.10;;;;;;;5.73;28.92;96929.06;5015451;28;20853;-72
2022/03/12 11:23:12;;;;;;;5.23;4.77;;;;;;;5.74;28.78;96920.13;5024297;28;20457;-73
2022/03/12 11:26:00;;;;;;;6.37;5.53;;;;;;;5.69;29.00;96914.97;5032212;28;20982;-73
2022/03/12 11:28:30;;;;;;;4.93;4.33;;;;;;;5.86;28.64;96913.44;5065164;28;20985;-72
2022/03/12 11:30:57;;;;;;;11.60;5.20;;;;;;;5.88;28.19;96910.56;5032066;28;20490;-73
2022/03/12 11:33:25;;;;;;;5.70;4.57;;;;;;;5.91;28.49;96879.31;5035031;28;20448;-72
2022/03/12 11:36:09;;;;;;;5.40;4.40;;;;;;;6.28;28.37;96901.41;5031787;28;20963;-72
2022/03/12 11:38:36;;;;;;;7.50;5.07;;;;;;;6.14;28.28;96905.78;5026607;28;20436;-72
2022/03/12 11:41:09;;;;;;;5.20;4.63;;;;;;;6.68;28.63;96894.00;5024708;28;20435;-72
2022/03/12 11:43:41;;;;;;;7.90;4.90;;;;;;;7.27;28.36;96889.84;5031775;28;20468;-73